createdAt,value
2019-05-20T00:01:11.685Z,12.40
2019-05-20T00:03:41.015Z,12.30
2019-05-20T00:06:10.457Z,12.30
2019-05-20T00:08:39.834Z,12.30
2019-05-20T00:11:09.301Z,12.30
2019-05-20T00:13:38.686Z,12.20
2019-05-20T00:16:08.021Z,12.30
2019-05-20T00:18:37.348Z,12.30
2019-05-20T00:21:06.697Z,12.30
2019-05-20T00:23:36.017Z,12.20
2019-05-20T00:26:05.413Z,12.30
2019-05-20T00:28:34.797Z,12.20
2019-05-20T00:31:05.194Z,12.20
2019-05-20T00:33:34.572Z,12.20
2019-05-20T00:36:04.064Z,12.20
2019-05-20T00:38:33.639Z,12.20
2019-05-20T00:41:02.953Z,12.30
2019-05-20T00:43:32.294Z,12.30
2019-05-20T00:46:01.591Z,12.30
2019-05-20T00:48:30.944Z,12.30
2019-05-20T00:51:00.246Z,12.30
2019-05-20T00:53:29.578Z,12.30
2019-05-20T00:55:59.288Z,12.30
2019-05-20T00:58:28.701Z,12.30
2019-05-20T01:00:58.031Z,12.30
2019-05-20T01:03:27.378Z,12.20
2019-05-20T01:05:56.731Z,12.30
2019-05-20T01:08:26.141Z,12.30
2019-05-20T01:10:55.465Z,12.30
2019-05-20T01:13:24.764Z,12.30
2019-05-20T01:15:54.101Z,12.30
2019-05-20T01:18:23.395Z,12.30
2019-05-20T01:20:53.164Z,12.30
2019-05-20T01:23:22.464Z,12.30
2019-05-20T01:25:51.791Z,12.30
2019-05-20T01:28:21.091Z,12.40
2019-05-20T01:30:50.427Z,12.20
2019-05-20T01:33:20.811Z,12.20
2019-05-20T01:35:50.148Z,12.20
2019-05-20T01:38:19.448Z,12.20
2019-05-20T01:40:48.864Z,12.20
2019-05-20T01:43:18.170Z,12.30
2019-05-20T01:45:47.507Z,12.20
2019-05-20T01:48:16.810Z,12.20
2019-05-20T01:50:46.148Z,12.20
2019-05-20T01:53:15.449Z,12.20
2019-05-20T01:55:44.844Z,12.20
2019-05-20T01:58:14.206Z,12.20
2019-05-20T02:00:43.536Z,12.10
2019-05-20T02:03:12.838Z,12.10
2019-05-20T02:05:42.238Z,12.10
2019-05-20T02:08:11.655Z,12.10
2019-05-20T02:10:42.045Z,12.00
2019-05-20T02:13:11.341Z,12.00
2019-05-20T02:15:44.739Z,12.00
2019-05-20T02:18:14.063Z,11.90
2019-05-20T02:20:43.369Z,11.80
2019-05-20T02:23:16.412Z,11.80
2019-05-20T02:25:48.778Z,11.70
2019-05-20T02:28:19.324Z,11.60
2019-05-20T02:30:48.670Z,11.60
2019-05-20T02:33:17.951Z,11.50
2019-05-20T02:35:47.281Z,11.50
2019-05-20T02:38:16.651Z,11.60
2019-05-20T02:40:45.953Z,11.50
2019-05-20T02:43:15.282Z,11.60
2019-05-20T02:45:44.669Z,11.60
2019-05-20T02:48:14.036Z,11.60
2019-05-20T02:50:43.347Z,11.60
2019-05-20T02:53:12.749Z,11.60
2019-05-20T02:55:42.213Z,11.60
2019-05-20T02:58:11.549Z,11.50
2019-05-20T03:00:40.885Z,11.50
2019-05-20T03:03:10.335Z,11.50
2019-05-20T03:05:39.819Z,11.40
2019-05-20T03:08:09.146Z,11.40
2019-05-20T03:10:38.482Z,11.40
2019-05-20T03:13:07.897Z,11.50
2019-05-20T03:15:37.235Z,11.50
2019-05-20T03:18:06.618Z,11.60
2019-05-20T03:20:35.937Z,11.60
2019-05-20T03:23:05.245Z,11.70
2019-05-20T03:25:34.577Z,11.60
2019-05-20T03:28:03.958Z,11.50
2019-05-20T03:30:33.352Z,11.50
2019-05-20T03:33:02.682Z,11.50
2019-05-20T03:35:32.041Z,11.40
2019-05-20T03:38:01.423Z,11.40
2019-05-20T03:40:30.730Z,11.50
2019-05-20T03:43:00.053Z,11.50
2019-05-20T03:45:29.394Z,11.60
2019-05-20T03:47:58.778Z,11.70
2019-05-20T03:50:28.172Z,11.80
2019-05-20T03:52:57.471Z,11.80
2019-05-20T03:55:26.804Z,11.80
2019-05-20T03:57:56.502Z,11.90
2019-05-20T04:00:46.091Z,11.90
2019-05-20T04:03:16.216Z,11.80
2019-05-20T04:05:46.780Z,11.80
2019-05-20T04:08:15.292Z,11.60
2019-05-20T04:10:44.608Z,11.60
2019-05-20T04:13:13.929Z,11.60
2019-05-20T04:15:43.333Z,11.70
2019-05-20T04:18:12.655Z,11.70
2019-05-20T04:20:41.987Z,11.70
2019-05-20T04:23:11.531Z,11.80
2019-05-20T04:25:40.920Z,11.70
2019-05-20T04:28:10.250Z,11.70
2019-05-20T04:30:39.692Z,11.70
2019-05-20T04:33:09.034Z,11.90
2019-05-20T04:35:38.400Z,11.90
2019-05-20T04:38:07.793Z,11.80
2019-05-20T04:40:37.094Z,11.80
2019-05-20T04:43:06.489Z,11.80
2019-05-20T04:45:35.850Z,11.80
2019-05-20T04:48:05.161Z,11.90
2019-05-20T04:50:34.563Z,11.90
2019-05-20T04:53:03.889Z,12.00
2019-05-20T04:55:33.295Z,12.00
2019-05-20T04:58:02.605Z,11.90
2019-05-20T05:00:48.091Z,12.00
2019-05-20T05:03:18.471Z,12.00
2019-05-20T05:05:48.835Z,12.10
2019-05-20T05:08:19.400Z,12.10
2019-05-20T05:10:50.211Z,12.00
2019-05-20T05:13:20.090Z,12.00
2019-05-20T05:15:49.466Z,12.10
2019-05-20T05:18:18.891Z,12.20
2019-05-20T05:20:48.299Z,12.20
2019-05-20T05:23:17.861Z,12.20
2019-05-20T05:25:47.512Z,12.30
2019-05-20T05:28:16.934Z,12.30
2019-05-20T05:30:47.274Z,12.30
2019-05-20T05:33:16.663Z,12.40
2019-05-20T05:35:53.314Z,12.30
2019-05-20T05:38:16.995Z,12.30
2019-05-20T05:40:46.331Z,12.20
2019-05-20T05:43:15.666Z,12.10
2019-05-20T05:45:44.985Z,12.20
2019-05-20T05:48:14.441Z,12.20
2019-05-20T05:50:43.760Z,12.10
2019-05-20T05:53:13.221Z,12.10
2019-05-20T05:55:42.596Z,12.20
2019-05-20T05:58:11.931Z,12.30
2019-05-20T06:00:41.242Z,12.40
2019-05-20T06:03:11.647Z,12.40
2019-05-20T06:05:40.965Z,12.60
2019-05-20T06:08:10.417Z,12.50
2019-05-20T06:10:39.705Z,12.60
2019-05-20T06:13:09.270Z,12.60
2019-05-20T06:15:38.658Z,12.70
2019-05-20T06:18:08.034Z,12.80
2019-05-20T06:20:37.470Z,12.90
2019-05-20T06:23:06.765Z,13.00
2019-05-20T06:25:36.107Z,13.10
2019-05-20T06:28:05.471Z,13.20
2019-05-20T06:30:40.580Z,13.30
2019-05-20T06:33:10.194Z,13.30
2019-05-20T06:35:39.644Z,13.40
2019-05-20T06:38:10.816Z,13.60
2019-05-20T06:40:40.156Z,13.60
2019-05-20T06:43:09.544Z,13.60
2019-05-20T06:45:38.889Z,13.70
2019-05-20T06:48:08.196Z,13.80
2019-05-20T06:50:37.534Z,14.00
2019-05-20T06:53:06.853Z,14.30
2019-05-20T06:55:36.303Z,14.40
2019-05-20T06:58:05.889Z,14.50
2019-05-20T07:00:39.473Z,14.50
2019-05-20T07:03:09.640Z,14.70
2019-05-20T07:05:39.077Z,14.60
2019-05-20T07:08:08.510Z,14.80
2019-05-20T07:10:37.885Z,14.90
2019-05-20T07:13:07.212Z,14.90
2019-05-20T07:15:36.581Z,14.80
2019-05-20T07:18:05.910Z,14.70
2019-05-20T07:20:35.477Z,14.70
2019-05-20T07:23:04.849Z,14.70
2019-05-20T07:25:34.409Z,14.80
2019-05-20T07:28:03.711Z,14.80
2019-05-20T07:30:33.345Z,15.10
2019-05-20T07:33:02.641Z,15.00
2019-05-20T07:35:31.956Z,15.00
2019-05-20T07:38:01.281Z,14.80
2019-05-20T07:40:32.273Z,15.10
2019-05-20T07:43:02.438Z,14.90
2019-05-20T07:45:34.562Z,14.70
2019-05-20T07:48:05.432Z,14.80
2019-05-20T07:50:39.238Z,14.60
2019-05-20T07:53:09.918Z,14.60
2019-05-20T07:55:42.348Z,14.50
2019-05-20T07:58:14.145Z,14.50
2019-05-20T08:00:43.462Z,14.70
2019-05-20T08:03:12.976Z,14.80
2019-05-20T08:05:42.278Z,14.80
2019-05-20T08:08:11.600Z,14.90
2019-05-20T08:10:40.949Z,15.10
2019-05-20T08:13:10.279Z,15.20
2019-05-20T08:15:39.605Z,15.30
2019-05-20T08:18:08.974Z,15.30
2019-05-20T08:20:38.297Z,15.10
2019-05-20T08:23:07.600Z,15.10
2019-05-20T08:25:37.102Z,15.00
2019-05-20T08:28:06.578Z,15.10
2019-05-20T08:30:37.799Z,15.10
2019-05-20T08:33:07.472Z,15.10
2019-05-20T08:35:36.850Z,15.10
2019-05-20T08:38:06.230Z,15.20
2019-05-20T08:40:35.574Z,15.10
2019-05-20T08:43:05.239Z,15.10
2019-05-20T08:45:34.643Z,15.10
2019-05-20T08:48:04.608Z,15.10
2019-05-20T08:50:33.987Z,15.20
2019-05-20T08:53:03.345Z,15.20
2019-05-20T08:55:32.828Z,15.10
2019-05-20T08:58:02.230Z,15.10
2019-05-20T09:00:31.645Z,15.10
2019-05-20T09:03:01.139Z,15.10
2019-05-20T09:05:30.491Z,15.00
2019-05-20T09:08:03.437Z,15.00
2019-05-20T09:10:30.910Z,15.00
2019-05-20T09:13:00.398Z,15.00
2019-05-20T09:15:29.929Z,14.90
2019-05-20T09:18:00.535Z,14.90
2019-05-20T09:20:30.014Z,14.90
2019-05-20T09:23:02.653Z,14.90
2019-05-20T09:25:32.317Z,14.80
2019-05-20T09:28:02.234Z,14.80
2019-05-20T09:30:31.874Z,14.80
2019-05-20T09:33:01.623Z,14.90
2019-05-20T09:35:31.186Z,14.90
2019-05-20T09:38:00.593Z,15.00
2019-05-20T09:40:39.237Z,15.10
2019-05-20T09:43:08.849Z,15.10
2019-05-20T09:45:38.373Z,15.20
2019-05-20T09:48:08.438Z,15.20
2019-05-20T09:50:38.290Z,15.30
2019-05-20T09:53:07.902Z,15.10
2019-05-20T09:55:37.634Z,15.10
2019-05-20T09:58:07.628Z,15.10
2019-05-20T10:00:37.194Z,15.10
2019-05-20T10:03:07.662Z,15.00
2019-05-20T10:05:37.873Z,15.00
2019-05-20T10:08:07.676Z,15.10
2019-05-20T10:10:37.065Z,15.10
2019-05-20T10:13:07.425Z,15.20
2019-05-20T10:15:37.532Z,15.30
2019-05-20T10:18:07.028Z,15.50
2019-05-20T10:20:36.474Z,15.50
2019-05-20T10:23:05.853Z,15.50
2019-05-20T10:25:35.268Z,15.60
2019-05-20T10:28:04.721Z,15.50
2019-05-20T10:30:34.131Z,15.50
2019-05-20T10:33:03.491Z,15.40
2019-05-20T10:35:32.901Z,15.40
2019-05-20T10:38:02.200Z,15.50
2019-05-20T10:40:31.534Z,15.60
2019-05-20T10:43:00.865Z,15.50
2019-05-20T10:45:30.204Z,15.50
2019-05-20T10:47:59.549Z,15.70
2019-05-20T10:50:28.856Z,15.80
2019-05-20T10:52:58.404Z,15.90
2019-05-20T10:55:27.777Z,15.90
2019-05-20T10:57:57.149Z,16.00
2019-05-20T11:00:26.914Z,16.00
2019-05-20T11:02:56.224Z,16.20
2019-05-20T11:05:25.646Z,16.20
2019-05-20T11:07:55.038Z,16.00
2019-05-20T11:10:24.428Z,15.90
2019-05-20T11:12:53.781Z,15.80
2019-05-20T11:15:23.107Z,15.60
2019-05-20T11:17:52.475Z,15.50
2019-05-20T11:20:22.303Z,15.50
2019-05-20T11:22:51.751Z,15.40
2019-05-20T11:25:22.149Z,15.30
2019-05-20T11:27:51.531Z,15.30
2019-05-20T11:30:21.221Z,15.40
2019-05-20T11:32:51.439Z,15.40
2019-05-20T11:35:22.031Z,15.40
2019-05-20T11:37:51.414Z,15.40
2019-05-20T11:40:21.199Z,15.20
2019-05-20T11:42:50.511Z,15.10
2019-05-20T11:45:21.058Z,15.10
2019-05-20T11:47:50.468Z,15.00
2019-05-20T11:50:21.473Z,15.10
2019-05-20T11:52:50.875Z,15.10
2019-05-20T11:55:20.169Z,15.10
2019-05-20T11:57:49.530Z,15.10
2019-05-20T12:00:20.775Z,15.20
2019-05-20T12:02:50.250Z,15.00
2019-05-20T12:05:19.769Z,14.90
2019-05-20T12:07:49.098Z,14.90
2019-05-20T12:10:18.969Z,14.90
2019-05-20T12:12:48.280Z,14.90
2019-05-20T12:15:17.957Z,14.90
2019-05-20T12:17:47.303Z,14.90
2019-05-20T12:20:16.863Z,14.90
2019-05-20T12:22:46.185Z,15.00
2019-05-20T12:25:16.331Z,15.00
2019-05-20T12:27:45.665Z,15.00
2019-05-20T12:30:15.514Z,15.00
2019-05-20T12:32:44.953Z,15.00
2019-05-20T12:35:14.543Z,14.80
2019-05-20T12:37:45.824Z,14.90
2019-05-20T12:40:16.052Z,14.90
2019-05-20T12:42:45.479Z,14.80
2019-05-20T12:45:15.245Z,14.80
2019-05-20T12:47:44.656Z,14.80
2019-05-20T12:50:14.308Z,14.90
2019-05-20T12:52:43.789Z,14.90
2019-05-20T12:55:13.529Z,15.00
2019-05-20T12:57:42.948Z,15.00
2019-05-20T13:00:13.998Z,15.10
2019-05-20T13:02:43.504Z,15.20
2019-05-20T13:05:13.244Z,15.20
2019-05-20T13:07:43.712Z,15.30
2019-05-20T13:10:27.602Z,15.30
2019-05-20T13:12:44.437Z,15.50
2019-05-20T13:15:15.582Z,15.60
2019-05-20T13:17:45.576Z,15.80
2019-05-20T13:20:15.369Z,15.80
2019-05-20T13:22:44.777Z,16.00
2019-05-20T13:25:14.299Z,16.00
2019-05-20T13:27:43.633Z,16.10
2019-05-20T13:30:13.369Z,16.00
2019-05-20T13:32:42.740Z,16.10
2019-05-20T13:35:12.553Z,16.20
2019-05-20T13:37:41.956Z,16.30
2019-05-20T13:40:11.882Z,16.20
2019-05-20T13:42:41.399Z,16.30
2019-05-20T13:45:10.950Z,16.30
2019-05-20T13:47:40.296Z,16.30
2019-05-20T13:50:10.386Z,16.30
2019-05-20T13:52:39.764Z,16.30
2019-05-20T13:55:09.815Z,16.20
2019-05-20T13:57:40.077Z,16.20
2019-05-20T14:00:38.698Z,16.20
2019-05-20T14:03:08.072Z,16.30
2019-05-20T14:05:37.475Z,16.30
2019-05-20T14:08:06.998Z,16.40
2019-05-20T14:10:37.419Z,16.30
2019-05-20T14:13:06.854Z,16.40
2019-05-20T14:15:36.246Z,16.40
2019-05-20T14:18:05.622Z,16.60
2019-05-20T14:20:35.089Z,16.80
2019-05-20T14:23:04.681Z,17.00
2019-05-20T14:25:34.079Z,16.90
2019-05-20T14:28:03.729Z,16.70
2019-05-20T14:30:33.131Z,16.90
2019-05-20T14:33:02.639Z,17.00
2019-05-20T14:35:32.146Z,16.90
2019-05-20T14:38:01.466Z,16.90
2019-05-20T14:40:31.136Z,17.10
2019-05-20T14:43:00.367Z,17.00
2019-05-20T14:45:29.802Z,17.10
2019-05-20T14:47:59.230Z,17.10
2019-05-20T14:50:28.568Z,17.10
2019-05-20T14:52:57.875Z,17.10
2019-05-20T14:55:27.246Z,17.10
2019-05-20T14:57:56.720Z,17.10
2019-05-20T15:00:26.228Z,17.20
2019-05-20T15:02:55.623Z,17.20
2019-05-20T15:05:25.022Z,17.30
2019-05-20T15:07:54.456Z,17.30
2019-05-20T15:10:23.986Z,17.40
2019-05-20T15:12:53.299Z,17.40
2019-05-20T15:15:22.713Z,17.40
2019-05-20T15:17:52.025Z,17.40
2019-05-20T15:20:21.419Z,17.30
2019-05-20T15:22:50.736Z,17.20
2019-05-20T15:25:20.148Z,17.30
2019-05-20T15:27:49.994Z,17.10
2019-05-20T15:30:19.691Z,17.00
2019-05-20T15:32:49.002Z,16.90
2019-05-20T15:35:18.431Z,16.90
2019-05-20T15:37:47.792Z,17.00
2019-05-20T15:40:17.256Z,17.10
2019-05-20T15:42:49.644Z,17.00
2019-05-20T15:45:19.405Z,17.10
2019-05-20T15:47:48.717Z,17.00
2019-05-20T15:50:18.125Z,17.00
2019-05-20T15:52:47.585Z,17.10
2019-05-20T15:55:18.769Z,17.10
2019-05-20T15:57:48.098Z,17.00
2019-05-20T16:00:17.886Z,16.90
2019-05-20T16:02:47.293Z,16.90
2019-05-20T16:05:16.681Z,16.90
2019-05-20T16:07:46.175Z,16.90
2019-05-20T16:10:17.120Z,16.70
2019-05-20T16:12:46.591Z,16.70
2019-05-20T16:15:16.118Z,16.70
2019-05-20T16:17:48.175Z,16.70
2019-05-20T16:20:16.764Z,16.50
2019-05-20T16:22:46.089Z,16.40
2019-05-20T16:25:15.859Z,16.40
2019-05-20T16:27:45.321Z,16.10
2019-05-20T16:30:15.253Z,16.10
2019-05-20T16:32:44.733Z,16.00
2019-05-20T16:35:14.432Z,16.00
2019-05-20T16:37:43.740Z,15.90
2019-05-20T16:40:13.627Z,15.80
2019-05-20T16:42:43.149Z,15.80
2019-05-20T16:45:13.304Z,15.70
2019-05-20T16:47:42.610Z,15.80
2019-05-20T16:50:12.245Z,15.60
2019-05-20T16:52:41.652Z,15.60
2019-05-20T16:55:11.773Z,15.60
2019-05-20T16:57:41.257Z,15.70
2019-05-20T17:00:30.043Z,15.70
2019-05-20T17:02:43.264Z,15.60
2019-05-20T17:05:13.270Z,15.50
2019-05-20T17:07:42.669Z,15.50
2019-05-20T17:10:12.733Z,15.50
2019-05-20T17:12:42.117Z,15.50
2019-05-20T17:15:11.885Z,15.50
2019-05-20T17:17:41.192Z,15.50
2019-05-20T17:20:10.980Z,15.50
2019-05-20T17:22:40.512Z,15.50
2019-05-20T17:25:10.304Z,15.50
2019-05-20T17:27:40.060Z,15.40
2019-05-20T17:30:10.120Z,15.40
2019-05-20T17:32:39.588Z,15.40
2019-05-20T17:35:09.439Z,15.40
2019-05-20T17:37:39.221Z,15.30
2019-05-20T17:40:10.293Z,15.20
2019-05-20T17:42:39.734Z,15.20
2019-05-20T17:45:11.007Z,15.20
2019-05-20T17:47:40.494Z,15.20
2019-05-20T17:50:10.428Z,15.20
2019-05-20T17:52:39.905Z,15.10
2019-05-20T17:55:09.678Z,15.10
2019-05-20T17:57:39.358Z,15.00
2019-05-20T18:00:12.286Z,15.00
2019-05-20T18:02:41.914Z,14.90
2019-05-20T18:05:14.639Z,14.90
2019-05-20T18:07:42.585Z,14.90
2019-05-20T18:10:12.301Z,14.90
2019-05-20T18:12:41.696Z,14.90
2019-05-20T18:15:11.585Z,14.90
2019-05-20T18:17:41.001Z,14.90
2019-05-20T18:20:10.899Z,14.90
2019-05-20T18:22:40.420Z,14.80
2019-05-20T18:25:09.874Z,14.80
2019-05-20T18:27:39.368Z,14.70
2019-05-20T18:30:09.795Z,14.70
2019-05-20T18:32:39.217Z,14.60
2019-05-20T18:35:08.774Z,14.50
2019-05-20T18:37:38.145Z,14.50
2019-05-20T18:40:13.791Z,14.40
2019-05-20T18:42:39.824Z,14.40
2019-05-20T18:45:09.722Z,14.40
2019-05-20T18:47:38.997Z,14.30
2019-05-20T18:50:09.419Z,14.30
2019-05-20T18:52:40.036Z,14.20
2019-05-20T18:55:09.708Z,14.20
2019-05-20T18:57:39.044Z,14.20
2019-05-20T19:00:10.368Z,14.20
2019-05-20T19:02:40.744Z,14.20
2019-05-20T19:05:11.505Z,14.10
2019-05-20T19:07:41.318Z,14.10
2019-05-20T19:10:11.156Z,14.10
2019-05-20T19:12:40.584Z,14.20
2019-05-20T19:15:10.676Z,14.10
2019-05-20T19:17:40.131Z,14.10
2019-05-20T19:20:09.749Z,14.10
2019-05-20T19:22:39.241Z,14.10
2019-05-20T19:25:09.018Z,14.10
2019-05-20T19:27:38.528Z,14.00
2019-05-20T19:30:08.281Z,14.00
2019-05-20T19:32:37.793Z,14.00
2019-05-20T19:35:07.907Z,14.00
2019-05-20T19:37:37.515Z,14.00
2019-05-20T19:40:08.080Z,14.00
2019-05-20T19:42:39.544Z,14.00
2019-05-20T19:45:09.961Z,14.10
2019-05-20T19:47:39.376Z,14.10
2019-05-20T19:50:10.635Z,14.00
2019-05-20T19:52:40.022Z,14.00
2019-05-20T19:55:09.675Z,14.00
2019-05-20T19:57:39.758Z,14.10
2019-05-20T20:00:10.697Z,14.00
2019-05-20T20:02:40.975Z,14.00
2019-05-20T20:05:10.872Z,13.90
2019-05-20T20:07:40.352Z,13.90
2019-05-20T20:10:09.994Z,13.90
2019-05-20T20:12:39.348Z,13.90
2019-05-20T20:15:10.605Z,13.90
2019-05-20T20:17:39.933Z,13.90
2019-05-20T20:20:09.337Z,13.90
2019-05-20T20:22:38.662Z,13.90
2019-05-20T20:25:08.211Z,13.90
2019-05-20T20:27:37.625Z,13.90
2019-05-20T20:30:07.372Z,13.90
2019-05-20T20:32:38.797Z,13.90
2019-05-20T20:35:09.034Z,13.90
2019-05-20T20:37:38.345Z,13.80
2019-05-20T20:40:08.027Z,13.80
2019-05-20T20:42:37.469Z,13.80
2019-05-20T20:45:08.007Z,13.80
2019-05-20T20:47:41.668Z,13.80
2019-05-20T20:50:08.651Z,13.80
2019-05-20T20:52:38.008Z,13.80
2019-05-20T20:55:07.569Z,13.70
2019-05-20T20:57:37.018Z,13.80
2019-05-20T21:00:09.995Z,13.70
2019-05-20T21:02:52.170Z,13.70
2019-05-20T21:05:10.775Z,13.60
2019-05-20T21:07:40.478Z,13.60
2019-05-20T21:10:10.306Z,13.60
2019-05-20T21:12:39.636Z,13.70
2019-05-20T21:15:09.283Z,13.60
2019-05-20T21:17:38.685Z,13.60
2019-05-20T21:20:08.064Z,13.50
2019-05-20T21:22:37.395Z,13.50
2019-05-20T21:25:07.100Z,13.50
2019-05-20T21:27:36.506Z,13.40
2019-05-20T21:30:07.486Z,13.40
2019-05-20T21:32:36.852Z,13.40
2019-05-20T21:35:06.602Z,13.50
2019-05-20T21:37:35.976Z,13.50
2019-05-20T21:40:05.838Z,13.50
2019-05-20T21:42:35.174Z,13.40
2019-05-20T21:45:06.944Z,13.40
2019-05-20T21:47:36.281Z,13.40
2019-05-20T21:50:07.381Z,13.30
2019-05-20T21:52:36.782Z,13.30
2019-05-20T21:55:07.595Z,13.30
2019-05-20T21:57:36.930Z,13.30
2019-05-20T22:00:08.859Z,13.30
2019-05-20T22:02:40.189Z,13.30
2019-05-20T22:05:09.946Z,13.40
2019-05-20T22:07:39.258Z,13.30
2019-05-20T22:10:09.610Z,13.30
2019-05-20T22:12:39.019Z,13.30
2019-05-20T22:15:08.570Z,13.30
2019-05-20T22:17:37.898Z,13.30
2019-05-20T22:20:26.568Z,13.30
2019-05-20T22:23:15.903Z,13.30
2019-05-20T22:25:49.458Z,13.30
2019-05-20T22:28:18.768Z,13.30
2019-05-20T22:30:48.167Z,13.20
2019-05-20T22:33:17.500Z,13.20
2019-05-20T22:35:46.840Z,13.10
2019-05-20T22:38:16.142Z,13.10
2019-05-20T22:40:45.524Z,13.10
2019-05-20T22:43:14.826Z,13.10
2019-05-20T22:45:44.171Z,13.10
2019-05-20T22:48:13.504Z,13.10
2019-05-20T22:50:42.815Z,13.00
2019-05-20T22:53:12.221Z,13.00
2019-05-20T22:55:41.593Z,13.00
2019-05-20T22:58:10.899Z,12.90
2019-05-20T23:00:40.236Z,12.80
2019-05-20T23:03:09.574Z,12.80
2019-05-20T23:05:38.885Z,12.80
2019-05-20T23:08:08.276Z,12.70
2019-05-20T23:10:37.590Z,12.70
2019-05-20T23:13:06.923Z,12.70
2019-05-20T23:15:36.231Z,12.70
2019-05-20T23:18:06.718Z,12.70
2019-05-20T23:20:36.038Z,12.60
2019-05-20T23:23:05.374Z,12.60
2019-05-20T23:25:35.766Z,12.60
2019-05-20T23:28:05.105Z,12.60
2019-05-20T23:30:34.440Z,12.60
2019-05-20T23:33:04.891Z,12.60
2019-05-20T23:35:34.327Z,12.60
2019-05-20T23:38:03.669Z,12.50
2019-05-20T23:40:33.039Z,12.50
2019-05-20T23:43:02.386Z,12.50
2019-05-20T23:45:31.712Z,12.40
2019-05-20T23:48:01.051Z,12.40
2019-05-20T23:50:30.357Z,12.40
2019-05-20T23:52:59.683Z,12.40
2019-05-20T23:55:30.244Z,12.30
2019-05-20T23:57:59.602Z,12.30
